createdAt,value
2018-07-14T00:02:25.479Z,7.17
2018-07-14T00:04:54.059Z,8.43
2018-07-14T00:07:22.684Z,5.77
2018-07-14T00:09:51.477Z,6.77
2018-07-14T00:12:20.769Z,6.97
2018-07-14T00:14:49.516Z,8.57
2018-07-14T00:17:18.157Z,6.53
2018-07-14T00:19:47.576Z,7.47
2018-07-14T00:22:16.818Z,8.80
2018-07-14T00:24:45.444Z,6.70
2018-07-14T00:27:16.439Z,7.60
2018-07-14T00:29:47.557Z,5.87
2018-07-14T00:32:17.363Z,5.43
2018-07-14T00:34:45.975Z,6.03
2018-07-14T00:37:16.821Z,8.67
2018-07-14T00:39:45.472Z,5.20
2018-07-14T00:42:14.792Z,5.83
2018-07-14T00:44:43.412Z,7.83
2018-07-14T00:47:12.005Z,6.93
2018-07-14T00:49:41.682Z,5.90
2018-07-14T00:52:10.340Z,8.07
2018-07-14T00:54:38.971Z,5.70
2018-07-14T00:57:07.741Z,7.80
2018-07-14T00:59:36.561Z,6.47
2018-07-14T01:02:05.229Z,7.23
2018-07-14T01:04:33.827Z,9.53
2018-07-14T01:07:02.421Z,8.60
2018-07-14T01:09:31.058Z,6.57
2018-07-14T01:11:59.689Z,8.60
2018-07-14T01:14:29.272Z,8.53
2018-07-14T01:16:57.918Z,7.17
2018-07-14T01:19:26.805Z,12.67
2018-07-14T01:21:55.497Z,7.77
2018-07-14T01:24:25.006Z,7.00
2018-07-14T01:26:53.604Z,10.87
2018-07-14T01:29:22.205Z,8.07
2018-07-14T01:31:50.839Z,7.60
2018-07-14T01:34:19.446Z,8.13
2018-07-14T01:36:48.039Z,8.27
2018-07-14T01:39:16.957Z,8.70
2018-07-14T01:41:45.565Z,8.27
2018-07-14T01:44:14.241Z,8.53
2018-07-14T01:46:42.840Z,8.60
2018-07-14T01:49:12.208Z,9.70
2018-07-14T01:51:40.853Z,8.83
2018-07-14T01:54:09.584Z,8.13
2018-07-14T01:56:38.184Z,7.70
2018-07-14T01:59:06.874Z,7.80
2018-07-14T02:01:35.828Z,7.97
2018-07-14T02:04:05.190Z,11.37
2018-07-14T02:06:33.811Z,12.73
2018-07-14T02:09:02.381Z,9.20
2018-07-14T02:11:31.039Z,10.43
2018-07-14T02:13:59.869Z,11.33
2018-07-14T02:16:28.507Z,9.47
2018-07-14T02:18:57.106Z,8.23
2018-07-14T02:21:26.063Z,9.70
2018-07-14T02:23:54.832Z,10.33
2018-07-14T02:26:23.484Z,9.10
2018-07-14T02:28:52.729Z,10.83
2018-07-14T02:31:21.376Z,10.50
2018-07-14T02:33:50.590Z,10.43
2018-07-14T02:36:19.189Z,11.57
2018-07-14T02:38:47.792Z,10.33
2018-07-14T02:41:17.128Z,13.60
2018-07-14T02:43:46.050Z,12.47
2018-07-14T02:46:14.738Z,10.27
2018-07-14T02:48:43.368Z,11.63
2018-07-14T02:51:12.092Z,13.23
2018-07-14T02:53:40.709Z,12.57
2018-07-14T02:56:09.342Z,11.23
2018-07-14T02:58:38.517Z,14.30
2018-07-14T03:01:07.734Z,12.20
2018-07-14T03:03:36.350Z,12.37
2018-07-14T03:06:05.739Z,13.63
2018-07-14T03:08:34.351Z,13.50
2018-07-14T03:11:03.536Z,11.40
2018-07-14T03:13:34.144Z,11.17
2018-07-14T03:16:02.878Z,11.73
2018-07-14T03:18:31.472Z,15.07
2018-07-14T03:21:00.063Z,13.23
2018-07-14T03:23:30.245Z,13.57
2018-07-14T03:25:58.868Z,15.10
2018-07-14T03:28:27.473Z,17.13
2018-07-14T03:30:56.096Z,12.47
2018-07-14T03:33:24.721Z,15.50
2018-07-14T03:35:53.305Z,12.80
2018-07-14T03:38:21.978Z,13.30
2018-07-14T03:40:50.637Z,15.13
2018-07-14T03:43:19.296Z,14.80
2018-07-14T03:45:47.904Z,12.03
2018-07-14T03:48:16.500Z,13.37
2018-07-14T03:50:45.576Z,13.53
2018-07-14T03:53:14.165Z,12.17
2018-07-14T03:55:43.392Z,13.63
2018-07-14T03:58:12.053Z,12.77
2018-07-14T04:00:40.629Z,13.33
2018-07-14T04:03:09.270Z,14.63
2018-07-14T04:05:37.893Z,14.53
2018-07-14T04:08:07.128Z,17.53
2018-07-14T04:10:35.796Z,16.03
2018-07-14T04:13:04.420Z,13.53
2018-07-14T04:15:33.026Z,11.97
2018-07-14T04:18:04.389Z,13.43
2018-07-14T04:20:34.398Z,12.57
2018-07-14T04:23:02.983Z,12.87
2018-07-14T04:25:32.281Z,13.73
2018-07-14T04:28:01.597Z,15.57
2018-07-14T04:30:30.310Z,17.30
2018-07-14T04:32:58.961Z,16.83
2018-07-14T04:35:27.609Z,16.50
2018-07-14T04:37:56.191Z,12.70
2018-07-14T04:40:24.779Z,14.07
2018-07-14T04:42:53.392Z,15.13
2018-07-14T04:45:23.141Z,17.60
2018-07-14T04:47:51.784Z,13.53
2018-07-14T04:50:20.412Z,15.33
2018-07-14T04:52:49.112Z,15.07
2018-07-14T04:55:17.736Z,16.17
2018-07-14T04:57:46.328Z,15.00
2018-07-14T05:00:14.936Z,14.07
2018-07-14T05:02:43.533Z,13.73
2018-07-14T05:05:12.150Z,19.53
2018-07-14T05:07:41.697Z,17.73
2018-07-14T05:10:10.541Z,16.50
2018-07-14T05:12:39.189Z,15.23
2018-07-14T05:15:08.591Z,17.23
2018-07-14T05:17:37.292Z,16.80
2018-07-14T05:20:06.220Z,16.53
2018-07-14T05:22:34.841Z,16.40
2018-07-14T05:25:04.148Z,14.80
2018-07-14T05:27:32.756Z,16.00
2018-07-14T05:30:01.792Z,17.30
2018-07-14T05:32:30.414Z,18.57
2018-07-14T05:34:59.049Z,19.37
2018-07-14T05:37:27.654Z,16.03
2018-07-14T05:39:56.250Z,12.93
2018-07-14T05:42:24.860Z,17.33
2018-07-14T05:44:53.498Z,13.50
2018-07-14T05:47:22.122Z,18.50
2018-07-14T05:49:50.702Z,14.80
2018-07-14T05:52:19.333Z,18.63
2018-07-14T05:54:47.953Z,17.47
2018-07-14T05:57:16.586Z,19.40
2018-07-14T05:59:45.268Z,16.13
2018-07-14T06:02:13.995Z,15.50
2018-07-14T06:04:42.713Z,17.40
2018-07-14T06:07:11.335Z,14.63
2018-07-14T06:09:40.075Z,16.83
2018-07-14T06:12:08.819Z,15.97
2018-07-14T06:14:38.307Z,17.27
2018-07-14T06:17:06.915Z,13.73
2018-07-14T06:19:35.731Z,16.30
2018-07-14T06:22:05.185Z,15.90
2018-07-14T06:24:33.879Z,15.30
2018-07-14T06:27:02.903Z,15.73
2018-07-14T06:29:31.509Z,15.90
2018-07-14T06:32:00.737Z,13.97
2018-07-14T06:34:29.304Z,14.93
2018-07-14T06:36:57.912Z,14.67
2018-07-14T06:39:26.532Z,15.83
2018-07-14T06:41:55.194Z,14.80
2018-07-14T06:44:23.793Z,15.23
2018-07-14T06:46:52.412Z,11.10
2018-07-14T06:49:20.996Z,14.40
2018-07-14T06:51:49.617Z,13.40
2018-07-14T06:54:18.495Z,15.23
2018-07-14T06:56:47.115Z,14.23
2018-07-14T06:59:15.705Z,14.37
2018-07-14T07:01:44.392Z,14.80
2018-07-14T07:04:13.128Z,13.13
2018-07-14T07:06:41.735Z,11.30
2018-07-14T07:09:10.924Z,15.07
2018-07-14T07:11:39.573Z,16.00
2018-07-14T07:14:08.225Z,17.80
2018-07-14T07:16:37.558Z,13.60
2018-07-14T07:19:06.208Z,12.70
2018-07-14T07:21:34.806Z,16.43
2018-07-14T07:24:03.603Z,11.20
2018-07-14T07:26:32.219Z,13.73
2018-07-14T07:29:00.791Z,12.67
2018-07-14T07:31:29.403Z,12.30
2018-07-14T07:33:58.172Z,12.77
2018-07-14T07:36:26.867Z,11.70
2018-07-14T07:38:55.472Z,12.93
2018-07-14T07:41:24.246Z,14.33
2018-07-14T07:43:52.864Z,9.77
2018-07-14T07:46:21.442Z,13.63
2018-07-14T07:48:50.059Z,10.47
2018-07-14T07:51:19.588Z,9.77
2018-07-14T07:53:48.145Z,10.93
2018-07-14T07:56:16.787Z,9.63
2018-07-14T07:58:45.626Z,8.93
2018-07-14T08:01:16.160Z,10.13
2018-07-14T08:03:44.862Z,12.73
2018-07-14T08:06:13.991Z,8.57
2018-07-14T08:08:42.616Z,8.30
2018-07-14T08:11:11.190Z,8.77
2018-07-14T08:13:39.514Z,9.77
2018-07-14T08:16:08.187Z,10.70
2018-07-14T08:18:36.817Z,8.37
2018-07-14T08:21:05.445Z,11.07
2018-07-14T08:23:34.045Z,10.73
2018-07-14T08:26:02.300Z,11.63
2018-07-14T08:28:31.222Z,9.20
2018-07-14T08:30:59.845Z,7.90
2018-07-14T08:33:28.498Z,8.53
2018-07-14T08:35:57.726Z,9.83
2018-07-14T08:38:26.374Z,11.93
2018-07-14T08:40:54.989Z,10.67
2018-07-14T08:43:23.600Z,9.67
2018-07-14T08:45:52.657Z,9.40
2018-07-14T08:48:21.800Z,10.77
2018-07-14T08:50:50.440Z,8.67
2018-07-14T08:53:18.680Z,9.53
2018-07-14T08:55:47.299Z,8.50
2018-07-14T08:58:15.929Z,8.73
2018-07-14T09:00:45.247Z,10.97
2018-07-14T09:03:13.848Z,8.57
2018-07-14T09:05:42.487Z,13.10
2018-07-14T09:08:11.873Z,10.97
2018-07-14T09:10:40.748Z,9.40
2018-07-14T09:13:09.341Z,8.40
2018-07-14T09:15:38.033Z,9.60
2018-07-14T09:18:06.633Z,11.97
2018-07-14T09:20:35.233Z,7.73
2018-07-14T09:23:03.812Z,8.43
2018-07-14T09:25:32.424Z,9.20
2018-07-14T09:28:01.820Z,11.50
2018-07-14T09:30:30.423Z,8.13
2018-07-14T09:32:59.096Z,9.53
2018-07-14T09:35:28.211Z,10.57
2018-07-14T09:37:57.135Z,8.50
2018-07-14T09:40:26.864Z,9.33
2018-07-14T09:42:55.484Z,9.90
2018-07-14T09:45:24.123Z,8.30
2018-07-14T09:47:52.777Z,9.53
2018-07-14T09:50:21.329Z,10.57
2018-07-14T09:52:50.807Z,9.10
2018-07-14T09:55:19.542Z,12.30
2018-07-14T09:57:48.764Z,7.83
2018-07-14T10:00:22.764Z,8.97
2018-07-14T10:02:51.344Z,10.63
2018-07-14T10:05:20.616Z,10.50
2018-07-14T10:07:49.462Z,9.83
2018-07-14T10:10:18.122Z,8.07
2018-07-14T10:12:47.057Z,11.90
2018-07-14T10:15:15.648Z,11.77
2018-07-14T10:17:44.327Z,8.50
2018-07-14T10:20:12.875Z,10.47
2018-07-14T10:22:41.549Z,9.93
2018-07-14T10:25:11.174Z,11.00
2018-07-14T10:27:39.800Z,9.97
2018-07-14T10:30:08.906Z,10.90
2018-07-14T10:32:37.648Z,8.27
2018-07-14T10:35:06.577Z,9.57
2018-07-14T10:37:35.307Z,7.97
2018-07-14T10:40:04.837Z,7.30
2018-07-14T10:42:33.503Z,9.47
2018-07-14T10:45:02.086Z,10.70
2018-07-14T10:47:30.833Z,8.03
2018-07-14T10:49:59.434Z,8.80
2018-07-14T10:52:28.066Z,8.33
2018-07-14T10:54:56.964Z,13.23
2018-07-14T10:57:26.261Z,10.03
2018-07-14T10:59:54.850Z,13.33
2018-07-14T11:02:23.478Z,8.23
2018-07-14T11:04:52.433Z,8.97
2018-07-14T11:07:21.090Z,9.50
2018-07-14T11:09:50.301Z,9.23
2018-07-14T11:12:21.161Z,10.20
2018-07-14T11:14:49.805Z,9.03
2018-07-14T11:17:18.455Z,7.07
2018-07-14T11:19:47.635Z,7.90
2018-07-14T11:22:17.126Z,9.07
2018-07-14T11:24:45.763Z,7.60
2018-07-14T11:27:14.457Z,10.48
2018-07-14T11:29:43.297Z,8.47
2018-07-14T11:32:12.282Z,8.57
2018-07-14T11:34:40.600Z,9.57
2018-07-14T11:37:11.135Z,6.13
2018-07-14T11:39:39.828Z,7.53
2018-07-14T11:42:09.177Z,9.87
2018-07-14T11:44:40.637Z,9.60
2018-07-14T11:47:10.502Z,9.37
2018-07-14T11:49:39.478Z,13.07
2018-07-14T11:52:08.272Z,9.53
2018-07-14T11:54:36.905Z,7.70
2018-07-14T11:57:05.512Z,12.47
2018-07-14T11:59:35.369Z,14.07
2018-07-14T12:02:05.036Z,7.40
2018-07-14T12:04:33.607Z,7.63
2018-07-14T12:07:02.273Z,12.93
2018-07-14T12:09:30.921Z,7.63
2018-07-14T12:12:01.522Z,9.13
2018-07-14T12:14:30.504Z,9.40
2018-07-14T12:16:59.146Z,10.20
2018-07-14T12:19:27.814Z,7.47
2018-07-14T12:21:56.455Z,8.73
2018-07-14T12:24:25.047Z,6.67
2018-07-14T12:26:56.647Z,8.10
2018-07-14T12:29:25.363Z,8.20
2018-07-14T12:31:54.720Z,6.20
2018-07-14T12:34:23.403Z,5.50
2018-07-14T12:36:53.518Z,5.70
2018-07-14T12:39:22.118Z,6.77
2018-07-14T12:41:50.770Z,8.63
2018-07-14T12:44:19.376Z,6.23
2018-07-14T12:46:49.177Z,4.67
2018-07-14T12:49:17.804Z,7.23
2018-07-14T12:51:46.434Z,7.43
2018-07-14T12:54:15.037Z,7.50
2018-07-14T12:56:43.625Z,7.08
2018-07-14T12:59:12.227Z,4.67
2018-07-14T13:01:40.841Z,5.03
2018-07-14T13:04:09.467Z,7.17
2018-07-14T13:06:38.242Z,5.53
2018-07-14T13:09:07.052Z,5.27
2018-07-14T13:11:36.354Z,6.47
2018-07-14T13:14:05.704Z,6.30
2018-07-14T13:16:34.852Z,5.57
2018-07-14T13:19:03.587Z,6.07
2018-07-14T13:21:32.308Z,4.57
2018-07-14T13:24:01.108Z,4.40
2018-07-14T13:26:29.959Z,5.63
2018-07-14T13:28:58.666Z,6.80
2018-07-14T13:31:27.333Z,4.33
2018-07-14T13:33:55.992Z,4.83
2018-07-14T13:36:24.764Z,3.07
2018-07-14T13:38:53.551Z,4.50
2018-07-14T13:41:22.351Z,3.43
2018-07-14T13:43:51.367Z,3.93
2018-07-14T13:46:21.435Z,4.07
2018-07-14T13:48:50.617Z,5.63
2018-07-14T13:51:19.290Z,4.73
2018-07-14T13:53:47.953Z,4.13
2018-07-14T13:56:16.874Z,5.17
2018-07-14T13:58:45.555Z,4.87
2018-07-14T14:01:14.784Z,3.33
2018-07-14T14:03:43.415Z,5.97
2018-07-14T14:06:12.011Z,6.50
2018-07-14T14:08:42.080Z,3.83
2018-07-14T14:11:10.823Z,4.47
2018-07-14T14:13:40.094Z,5.30
2018-07-14T14:16:10.105Z,8.43
2018-07-14T14:18:38.718Z,4.90
2018-07-14T14:21:08.223Z,4.10
2018-07-14T14:23:37.716Z,5.80
2018-07-14T14:26:06.288Z,9.27
2018-07-14T14:28:34.910Z,5.77
2018-07-14T14:31:03.676Z,3.63
2018-07-14T14:33:32.831Z,5.40
2018-07-14T14:36:01.457Z,3.57
2018-07-14T14:38:30.075Z,4.37
2018-07-14T14:40:58.774Z,3.13
2018-07-14T14:43:27.573Z,5.80
2018-07-14T14:45:56.323Z,3.10
2018-07-14T14:48:24.958Z,2.80
2018-07-14T14:50:53.595Z,3.27
2018-07-14T14:53:21.851Z,3.00
2018-07-14T14:55:50.485Z,2.50
2018-07-14T14:58:19.134Z,4.30
2018-07-14T15:00:47.747Z,4.00
2018-07-14T15:03:16.344Z,3.40
2018-07-14T15:05:45.173Z,4.67
2018-07-14T15:08:13.771Z,2.80
2018-07-14T15:10:42.435Z,3.20
2018-07-14T15:13:11.062Z,3.80
2018-07-14T15:15:40.438Z,4.67
2018-07-14T15:18:09.050Z,3.33
2018-07-14T15:20:38.245Z,3.57
2018-07-14T15:23:06.849Z,3.10
2018-07-14T15:25:35.480Z,4.97
2018-07-14T15:28:04.124Z,3.40
2018-07-14T15:30:32.748Z,2.80
2018-07-14T15:33:01.587Z,3.83
2018-07-14T15:35:31.007Z,3.53
2018-07-14T15:37:59.616Z,4.47
2018-07-14T15:40:27.894Z,4.37
2018-07-14T15:42:56.523Z,5.60
2018-07-14T15:45:25.137Z,3.70
2018-07-14T15:47:54.447Z,2.47
2018-07-14T15:50:23.116Z,2.70
2018-07-14T15:52:51.694Z,3.40
2018-07-14T15:55:20.989Z,4.73
2018-07-14T15:57:49.733Z,6.43
2018-07-14T16:00:18.409Z,3.00
2018-07-14T16:02:46.928Z,3.83
2018-07-14T16:05:15.546Z,3.40
2018-07-14T16:07:44.913Z,4.03
2018-07-14T16:10:13.515Z,3.23
2018-07-14T16:12:42.195Z,4.80
2018-07-14T16:15:11.418Z,5.17
2018-07-14T16:17:40.008Z,2.53
2018-07-14T16:20:08.693Z,2.63
2018-07-14T16:22:37.279Z,4.80
2018-07-14T16:25:05.941Z,3.80
2018-07-14T16:27:34.651Z,2.87
2018-07-14T16:30:03.102Z,2.57
2018-07-14T16:32:31.803Z,2.70
2018-07-14T16:35:00.521Z,4.43
2018-07-14T16:37:29.304Z,3.10
2018-07-14T16:39:58.580Z,3.90
2018-07-14T16:42:27.202Z,2.23
2018-07-14T16:44:55.862Z,3.77
2018-07-14T16:47:24.681Z,7.57
2018-07-14T16:49:53.329Z,4.50
2018-07-14T16:52:21.968Z,4.63
2018-07-14T16:54:50.610Z,4.83
2018-07-14T16:57:19.234Z,4.00
2018-07-14T16:59:47.937Z,3.43
2018-07-14T17:02:16.520Z,2.93
2018-07-14T17:04:45.153Z,2.50
2018-07-14T17:07:13.847Z,2.43
2018-07-14T17:09:42.420Z,5.37
2018-07-14T17:12:11.001Z,3.10
2018-07-14T17:14:40.221Z,4.67
2018-07-14T17:17:08.852Z,5.47
2018-07-14T17:19:38.273Z,2.43
2018-07-14T17:22:06.986Z,4.60
2018-07-14T17:24:35.599Z,2.73
2018-07-14T17:27:04.200Z,8.13
2018-07-14T17:29:32.791Z,2.87
2018-07-14T17:32:02.157Z,3.37
2018-07-14T17:34:31.203Z,4.73
2018-07-14T17:37:00.470Z,3.77
2018-07-14T17:39:29.929Z,2.43
2018-07-14T17:41:58.553Z,2.40
2018-07-14T17:44:28.054Z,7.10
2018-07-14T17:46:57.446Z,6.27
2018-07-14T17:49:26.071Z,5.60
2018-07-14T17:51:54.725Z,3.80
2018-07-14T17:54:22.970Z,2.67
2018-07-14T17:56:51.618Z,3.33
2018-07-14T17:59:20.303Z,1.60
2018-07-14T18:01:48.896Z,3.53
2018-07-14T18:04:17.699Z,2.00
2018-07-14T18:06:46.993Z,2.07
2018-07-14T18:09:15.695Z,4.07
2018-07-14T18:11:44.813Z,3.17
2018-07-14T18:14:13.704Z,2.87
2018-07-14T18:16:42.296Z,4.00
2018-07-14T18:19:12.264Z,3.77
2018-07-14T18:21:41.138Z,2.90
2018-07-14T18:24:10.067Z,2.23
2018-07-14T18:26:38.756Z,4.37
2018-07-14T18:29:07.423Z,4.97
2018-07-14T18:31:36.113Z,2.83
2018-07-14T18:34:04.807Z,2.20
2018-07-14T18:36:33.650Z,1.80
2018-07-14T18:39:02.750Z,2.27
2018-07-14T18:41:31.596Z,3.40
2018-07-14T18:44:00.609Z,3.27
2018-07-14T18:46:29.228Z,3.00
2018-07-14T18:48:57.915Z,2.53
2018-07-14T18:51:28.186Z,7.37
2018-07-14T18:53:58.030Z,1.87
2018-07-14T18:56:27.401Z,3.10
2018-07-14T18:58:56.135Z,2.07
2018-07-14T19:01:24.786Z,2.77
2018-07-14T19:03:53.442Z,2.30
2018-07-14T19:06:22.216Z,2.10
2018-07-14T19:08:51.489Z,2.80
2018-07-14T19:11:20.054Z,1.43
2018-07-14T19:13:48.776Z,4.43
2018-07-14T19:16:17.486Z,1.67
2018-07-14T19:18:46.337Z,2.40
2018-07-14T19:21:14.913Z,1.37
2018-07-14T19:23:43.520Z,2.60
2018-07-14T19:26:12.201Z,1.47
2018-07-14T19:28:40.757Z,1.97
2018-07-14T19:31:09.343Z,3.23
2018-07-14T19:33:37.962Z,3.10
2018-07-14T19:36:06.649Z,2.63
2018-07-14T19:38:35.356Z,2.90
2018-07-14T19:41:03.984Z,1.60
2018-07-14T19:43:33.201Z,1.50
2018-07-14T19:46:02.510Z,1.80
2018-07-14T19:48:31.097Z,1.30
2018-07-14T19:50:59.721Z,1.87
2018-07-14T19:55:49.607Z,1.40
2018-07-14T19:58:19.168Z,2.00
2018-07-14T20:00:47.865Z,2.10
2018-07-14T20:03:16.452Z,2.70
2018-07-14T20:05:45.869Z,1.57
2018-07-14T20:08:14.465Z,1.37
2018-07-14T20:10:44.021Z,1.10
2018-07-14T20:13:12.698Z,1.93
2018-07-14T20:15:40.940Z,1.23
2018-07-14T20:18:10.310Z,1.80
2018-07-14T20:20:39.600Z,5.10
2018-07-14T20:23:08.182Z,1.43
2018-07-14T20:25:37.402Z,1.73
2018-07-14T20:28:06.913Z,2.30
2018-07-14T20:30:36.091Z,2.87
2018-07-14T20:33:04.348Z,2.77
2018-07-14T20:35:32.990Z,1.40
2018-07-14T20:38:02.090Z,1.30
2018-07-14T20:40:30.917Z,1.53
2018-07-14T20:42:59.488Z,1.63
2018-07-14T20:45:28.102Z,2.93
2018-07-14T20:47:56.672Z,1.20
2018-07-14T20:50:25.294Z,1.30
2018-07-14T20:52:54.048Z,1.30
2018-07-14T20:55:23.327Z,3.37
2018-07-14T20:57:52.090Z,10.27
2018-07-14T21:00:20.737Z,2.27
2018-07-14T21:02:49.508Z,2.13
2018-07-14T21:05:18.104Z,3.97
2018-07-14T21:07:47.368Z,2.53
2018-07-14T21:10:16.020Z,1.40
2018-07-14T21:12:44.677Z,1.83
2018-07-14T21:15:13.410Z,11.30
2018-07-14T21:17:42.103Z,3.73
2018-07-14T21:20:10.748Z,1.57
2018-07-14T21:22:39.368Z,2.10
2018-07-14T21:25:08.000Z,2.90
2018-07-14T21:27:36.717Z,2.27
2018-07-14T21:30:05.425Z,3.43
2018-07-14T21:32:34.024Z,2.80
2018-07-14T21:35:02.641Z,1.93
2018-07-14T21:37:31.269Z,1.60
2018-07-14T21:40:00.078Z,2.67
2018-07-14T21:42:28.681Z,1.80
2018-07-14T21:44:57.269Z,2.30
2018-07-14T21:47:25.866Z,1.80
2018-07-14T21:49:54.441Z,2.40
2018-07-14T21:52:23.060Z,2.63
2018-07-14T21:54:51.667Z,2.30
2018-07-14T21:57:20.283Z,2.23
2018-07-14T21:59:48.879Z,2.40
2018-07-14T22:02:17.641Z,1.70
2018-07-14T22:04:46.265Z,2.20
2018-07-14T22:07:14.911Z,2.87
2018-07-14T22:09:43.485Z,3.67
2018-07-14T22:12:13.011Z,2.70
2018-07-14T22:14:41.632Z,2.87
2018-07-14T22:17:10.221Z,2.17
2018-07-14T22:19:38.791Z,4.10
2018-07-14T22:22:07.881Z,3.23
2018-07-14T22:24:36.480Z,2.50
2018-07-14T22:27:05.671Z,2.77
2018-07-14T22:29:34.309Z,2.63
2018-07-14T22:32:02.960Z,2.53
2018-07-14T22:34:31.570Z,4.30
2018-07-14T22:37:00.776Z,2.60
2018-07-14T22:39:29.366Z,3.47
2018-07-14T22:41:58.410Z,2.03
2018-07-14T22:44:27.057Z,4.97
2018-07-14T22:46:55.720Z,2.13
2018-07-14T22:49:24.290Z,2.40
2018-07-14T22:51:52.858Z,3.13
2018-07-14T22:54:21.477Z,2.47
2018-07-14T22:56:50.372Z,2.53
2018-07-14T22:59:18.993Z,2.93
2018-07-14T23:01:47.607Z,4.60
2018-07-14T23:04:16.198Z,2.37
2018-07-14T23:06:44.789Z,2.20
2018-07-14T23:09:13.377Z,1.93
2018-07-14T23:11:42.537Z,3.23
2018-07-14T23:14:11.784Z,3.27
2018-07-14T23:16:40.389Z,2.17
2018-07-14T23:19:09.065Z,3.13
2018-07-14T23:21:37.691Z,5.57
2018-07-14T23:24:07.033Z,2.63
2018-07-14T23:26:35.969Z,2.83
2018-07-14T23:29:04.665Z,3.37
2018-07-14T23:31:33.258Z,3.43
2018-07-14T23:34:02.990Z,3.80
2018-07-14T23:36:31.618Z,3.97
2018-07-14T23:39:00.225Z,2.83
2018-07-14T23:41:28.817Z,4.30
2018-07-14T23:43:57.446Z,3.53
2018-07-14T23:46:26.057Z,2.63
2018-07-14T23:48:54.639Z,2.30
2018-07-14T23:51:23.243Z,3.37
2018-07-14T23:53:51.855Z,2.60
2018-07-14T23:56:20.487Z,2.67
2018-07-14T23:58:49.146Z,2.47
